sensor_id;sensor_type;location;lat;lon;timestamp;pressure;altitude;pressure_sealevel;temperature;humidity
46095;BME280;31832;50.746;-2.716;2023-12-29T00:01:56;160691.88;;;6.56;100.00
46095;BME280;31832;50.746;-2.716;2023-12-29T00:04:21;160692.87;;;6.56;100.00
46095;BME280;31832;50.746;-2.716;2023-12-29T00:06:46;160769.29;;;6.98;100.00
46095;BME280;31832;50.746;-2.716;2023-12-29T00:09:12;160734.90;;;6.79;100.00
46095;BME280;31832;50.746;-2.716;2023-12-29T00:11:37;160760.15;;;6.69;100.00
46095;BME280;31832;50.746;-2.716;2023-12-29T00:14:03;160840.82;;;6.90;100.00
46095;BME280;31832;50.746;-2.716;2023-12-29T00:16:28;160797.03;;;6.90;100.00
46095;BME280;31832;50.746;-2.716;2023-12-29T00:18:53;160705.17;;;6.87;100.00
46095;BME280;31832;50.746;-2.716;2023-12-29T00:21:19;160778.09;;;6.79;100.00
46095;BME280;31832;50.746;-2.716;2023-12-29T00:23:44;160800.11;;;6.91;100.00
46095;BME280;31832;50.746;-2.716;2023-12-29T00:26:10;160890.26;;;7.41;100.00
46095;BME280;31832;50.746;-2.716;2023-12-29T00:28:35;160753.84;;;6.90;100.00
46095;BME280;31832;50.746;-2.716;2023-12-29T00:31:00;160779.67;;;6.80;100.00
46095;BME280;31832;50.746;-2.716;2023-12-29T00:33:26;160815.23;;;7.00;100.00
46095;BME280;31832;50.746;-2.716;2023-12-29T00:35:51;160784.91;;;6.83;100.00
46095;BME280;31832;50.746;-2.716;2023-12-29T00:38:16;160839.24;;;7.13;100.00
46095;BME280;31832;50.746;-2.716;2023-12-29T00:40:42;160792.30;;;7.35;100.00
46095;BME280;31832;50.746;-2.716;2023-12-29T00:43:07;160855.94;;;7.22;100.00
46095;BME280;31832;50.746;-2.716;2023-12-29T00:45:33;160748.60;;;6.39;100.00
46095;BME280;31832;50.746;-2.716;2023-12-29T00:47:59;160810.41;;;6.97;100.00
46095;BME280;31832;50.746;-2.716;2023-12-29T00:50:24;160869.07;;;7.29;100.00
46095;BME280;31832;50.746;-2.716;2023-12-29T00:52:49;160891.00;;;7.18;100.00
46095;BME280;31832;50.746;-2.716;2023-12-29T00:55:15;160931.06;;;7.16;100.00
46095;BME280;31832;50.746;-2.716;2023-12-29T00:57:40;160948.26;;;7.73;100.00
46095;BME280;31832;50.746;-2.716;2023-12-29T01:00:11;160947.01;;;7.48;100.00
46095;BME280;31832;50.746;-2.716;2023-12-29T01:02:30;160835.75;;;7.11;100.00
46095;BME280;31832;50.746;-2.716;2023-12-29T01:04:56;160874.05;;;7.32;100.00
46095;BME280;31832;50.746;-2.716;2023-12-29T01:07:21;160887.76;;;6.92;100.00
46095;BME280;31832;50.746;-2.716;2023-12-29T01:09:47;160949.17;;;7.26;100.00
46095;BME280;31832;50.746;-2.716;2023-12-29T01:12:13;160852.95;;;7.20;100.00
46095;BME280;31832;50.746;-2.716;2023-12-29T01:14:38;160899.65;;;7.46;100.00
46095;BME280;31832;50.746;-2.716;2023-12-29T01:17:04;160832.84;;;7.09;100.00
46095;BME280;31832;50.746;-2.716;2023-12-29T01:19:29;160811.99;;;6.98;100.00
46095;BME280;31832;50.746;-2.716;2023-12-29T01:21:54;160874.05;;;7.08;100.00
46095;BME280;31832;50.746;-2.716;2023-12-29T01:24:19;160842.64;;;6.67;100.00
46095;BME280;31832;50.746;-2.716;2023-12-29T01:26:45;160856.69;;;7.23;100.00
46095;BME280;31832;50.746;-2.716;2023-12-29T01:29:11;160966.05;;;7.59;100.00
46095;BME280;31832;50.746;-2.716;2023-12-29T01:31:37;160951.25;;;7.51;100.00
46095;BME280;31832;50.746;-2.716;2023-12-29T01:34:01;160862.17;;;7.26;100.00
46095;BME280;31832;50.746;-2.716;2023-12-29T01:36:27;160882.61;;;7.37;100.00
46095;BME280;31832;50.746;-2.716;2023-12-29T01:38:52;160951.59;;;7.51;100.00
46095;BME280;31832;50.746;-2.716;2023-12-29T01:41:19;160944.44;;;7.47;100.00
46095;BME280;31832;50.746;-2.716;2023-12-29T01:46:10;160910.12;;;7.52;100.00
46095;BME280;31832;50.746;-2.716;2023-12-29T01:48:35;160948.68;;;7.73;100.00
46095;BME280;31832;50.746;-2.716;2023-12-29T01:51:00;160879.62;;;7.35;100.00
46095;BME280;31832;50.746;-2.716;2023-12-29T01:53:25;160875.63;;;7.33;100.00
46095;BME280;31832;50.746;-2.716;2023-12-29T01:55:51;160850.54;;;7.19;100.00
46095;BME280;31832;50.746;-2.716;2023-12-29T01:58:16;160839.82;;;7.13;100.00
46095;BME280;31832;50.746;-2.716;2023-12-29T02:00:42;160938.70;;;7.68;100.00
46095;BME280;31832;50.746;-2.716;2023-12-29T02:03:08;160892.67;;;7.42;100.00
46095;BME280;31832;50.746;-2.716;2023-12-29T02:05:34;160929.48;;;7.39;100.00
46095;BME280;31832;50.746;-2.716;2023-12-29T02:08:00;160939.62;;;7.44;100.00
46095;BME280;31832;50.746;-2.716;2023-12-29T02:10:25;160952.25;;;7.75;100.00
46095;BME280;31832;50.746;-2.716;2023-12-29T02:12:50;160891.83;;;7.18;100.00
46095;BME280;31832;50.746;-2.716;2023-12-29T02:15:16;160896.90;;;7.45;100.00
46095;BME280;31832;50.746;-2.716;2023-12-29T02:17:43;160732.41;;;6.54;100.00
46095;BME280;31832;50.746;-2.716;2023-12-29T02:20:07;160904.22;;;7.25;100.00
46095;BME280;31832;50.746;-2.716;2023-12-29T02:22:31;160834.34;;;7.10;100.00
46095;BME280;31832;50.746;-2.716;2023-12-29T02:24:57;160863.25;;;7.02;100.00
46095;BME280;31832;50.746;-2.716;2023-12-29T02:27:31;160827.02;;;7.06;100.00
46095;BME280;31832;50.746;-2.716;2023-12-29T02:29:59;160857.43;;;7.23;100.00
46095;BME280;31832;50.746;-2.716;2023-12-29T02:32:16;160926.99;;;7.37;100.00
46095;BME280;31832;50.746;-2.716;2023-12-29T02:34:41;160901.89;;;7.00;100.00
46095;BME280;31832;50.746;-2.716;2023-12-29T02:37:04;160815.23;;;7.00;100.00
46095;BME280;31832;50.746;-2.716;2023-12-29T02:39:29;160959.90;;;7.32;100.00
46095;BME280;31832;50.746;-2.716;2023-12-29T02:41:55;160801.77;;;6.92;100.00
46095;BME280;31832;50.746;-2.716;2023-12-29T02:44:21;160970.87;;;7.62;100.00
46095;BME280;31832;50.746;-2.716;2023-12-29T02:46:46;160959.23;;;7.55;100.00
46095;BME280;31832;50.746;-2.716;2023-12-29T02:49:11;160940.45;;;7.45;100.00
46095;BME280;31832;50.746;-2.716;2023-12-29T02:51:37;160954.16;;;7.76;100.00
46095;BME280;31832;50.746;-2.716;2023-12-29T02:54:03;160971.45;;;7.38;100.00
46095;BME280;31832;50.746;-2.716;2023-12-29T02:56:29;160970.29;;;7.85;100.00
46095;BME280;31832;50.746;-2.716;2023-12-29T02:58:54;160934.96;;;7.18;100.00
46095;BME280;31832;50.746;-2.716;2023-12-29T03:01:20;160983.58;;;7.69;100.00
46095;BME280;31832;50.746;-2.716;2023-12-29T03:03:46;161026.23;;;7.68;100.00
46095;BME280;31832;50.746;-2.716;2023-12-29T03:06:11;160730.91;;;6.53;100.00
46095;BME280;31832;50.746;-2.716;2023-12-29T03:08:36;160870.15;;;7.30;100.00
46095;BME280;31832;50.746;-2.716;2023-12-29T03:11:01;160861.34;;;7.25;100.00
46095;BME280;31832;50.746;-2.716;2023-12-29T03:13:26;160871.39;;;7.31;100.00
46095;BME280;31832;50.746;-2.716;2023-12-29T03:15:52;160859.59;;;7.24;100.00
46095;BME280;31832;50.746;-2.716;2023-12-29T03:18:17;160821.46;;;7.03;100.00
46095;BME280;31832;50.746;-2.716;2023-12-29T03:20:42;160774.27;;;6.77;100.00
46095;BME280;31832;50.746;-2.716;2023-12-29T03:23:08;160793.88;;;6.88;100.00
46095;BME280;31832;50.746;-2.716;2023-12-29T03:25:33;160864.00;;;7.27;100.00
46095;BME280;31832;50.746;-2.716;2023-12-29T03:27:58;160813.65;;;6.99;100.00
46095;BME280;31832;50.746;-2.716;2023-12-29T03:30:24;160763.72;;;7.19;100.00
46095;BME280;31832;50.746;-2.716;2023-12-29T03:32:49;160769.62;;;6.98;100.00
46095;BME280;31832;50.746;-2.716;2023-12-29T03:35:15;160745.03;;;7.09;100.00
46095;BME280;31832;50.746;-2.716;2023-12-29T03:37:41;160726.43;;;6.51;100.00
46095;BME280;31832;50.746;-2.716;2023-12-29T03:40:08;160741.79;;;7.07;100.00
46095;BME280;31832;50.746;-2.716;2023-12-29T03:42:30;160791.30;;;7.10;100.00
46095;BME280;31832;50.746;-2.716;2023-12-29T03:44:56;160781.08;;;6.81;100.00
46095;BME280;31832;50.746;-2.716;2023-12-29T03:47:21;160752.09;;;7.13;100.00
46095;BME280;31832;50.746;-2.716;2023-12-29T03:49:46;160732.91;;;6.54;100.00
46095;BME280;31832;50.746;-2.716;2023-12-29T03:52:11;160738.72;;;7.05;100.00
46095;BME280;31832;50.746;-2.716;2023-12-29T03:54:36;160716.54;;;6.45;100.00
46095;BME280;31832;50.746;-2.716;2023-12-29T03:57:02;160702.01;;;6.85;100.00
46095;BME280;31832;50.746;-2.716;2023-12-29T03:59:27;160711.98;;;6.91;100.00
46095;BME280;31832;50.746;-2.716;2023-12-29T04:01:52;160723.77;;;6.97;100.00
46095;BME280;31832;50.746;-2.716;2023-12-29T04:04:17;160724.02;;;6.97;100.00
46095;BME280;31832;50.746;-2.716;2023-12-29T04:06:43;160709.48;;;6.89;100.00
46095;BME280;31832;50.746;-2.716;2023-12-29T04:09:08;160702.59;;;6.85;100.00
46095;BME280;31832;50.746;-2.716;2023-12-29T04:11:33;160729.83;;;7.00;100.00
46095;BME280;31832;50.746;-2.716;2023-12-29T04:13:58;160756.16;;;6.91;100.00
46095;BME280;31832;50.746;-2.716;2023-12-29T04:16:23;160675.18;;;6.70;100.00
46095;BME280;31832;50.746;-2.716;2023-12-29T04:18:49;160717.37;;;6.94;100.00
46095;BME280;31832;50.746;-2.716;2023-12-29T04:21:14;160813.40;;;6.99;100.00
46095;BME280;31832;50.746;-2.716;2023-12-29T04:23:39;160692.04;;;6.80;100.00
46095;BME280;31832;50.746;-2.716;2023-12-29T04:26:04;160674.60;;;6.70;100.00
46095;BME280;31832;50.746;-2.716;2023-12-29T04:28:29;160673.02;;;6.69;100.00
46095;BME280;31832;50.746;-2.716;2023-12-29T04:30:55;160717.29;;;6.70;100.00
46095;BME280;31832;50.746;-2.716;2023-12-29T04:33:20;160678.34;;;6.24;100.00
46095;BME280;31832;50.746;-2.716;2023-12-29T04:35:46;160750.18;;;6.64;100.00
46095;BME280;31832;50.746;-2.716;2023-12-29T04:38:11;160747.19;;;6.62;100.00
46095;BME280;31832;50.746;-2.716;2023-12-29T04:40:37;160801.52;;;6.92;100.00
46095;BME280;31832;50.746;-2.716;2023-12-29T04:43:02;160838.91;;;7.13;100.00
46095;BME280;31832;50.746;-2.716;2023-12-29T04:45:27;160883.28;;;7.37;100.00
46095;BME280;31832;50.746;-2.716;2023-12-29T04:47:52;160926.74;;;7.37;100.00
46095;BME280;31832;50.746;-2.716;2023-12-29T04:50:17;160790.89;;;6.86;100.00
46095;BME280;31832;50.746;-2.716;2023-12-29T04:52:43;160755.25;;;6.67;100.00
46095;BME280;31832;50.746;-2.716;2023-12-29T04:55:08;160741.46;;;6.59;100.00
46095;BME280;31832;50.746;-2.716;2023-12-29T04:57:33;160782.16;;;6.81;100.00
46095;BME280;31832;50.746;-2.716;2023-12-29T04:59:58;160783.66;;;6.82;100.00
46095;BME280;31832;50.746;-2.716;2023-12-29T05:02:24;160813.73;;;6.99;100.00
46095;BME280;31832;50.746;-2.716;2023-12-29T05:04:48;160833.42;;;7.10;100.00
46095;BME280;31832;50.746;-2.716;2023-12-29T05:07:14;160793.13;;;6.87;100.00
46095;BME280;31832;50.746;-2.716;2023-12-29T05:09:39;160871.48;;;7.31;100.00
46095;BME280;31832;50.746;-2.716;2023-12-29T05:12:05;160849.87;;;7.19;100.00
46095;BME280;31832;50.746;-2.716;2023-12-29T05:14:29;160782.16;;;6.81;100.00
46095;BME280;31832;50.746;-2.716;2023-12-29T05:16:55;160815.98;;;7.00;100.00
46095;BME280;31832;50.746;-2.716;2023-12-29T05:19:20;160952.00;;;7.51;100.00
46095;BME280;31832;50.746;-2.716;2023-12-29T05:21:46;160948.09;;;7.73;100.00
46095;BME280;31832;50.746;-2.716;2023-12-29T05:24:11;160910.12;;;7.52;100.00
46095;BME280;31832;50.746;-2.716;2023-12-29T05:26:36;160936.13;;;7.42;100.00
46095;BME280;31832;50.746;-2.716;2023-12-29T05:29:02;161005.78;;;7.81;100.00
46095;BME280;31832;50.746;-2.716;2023-12-29T05:31:28;161067.21;;;7.91;100.00
46095;BME280;31832;50.746;-2.716;2023-12-29T05:33:52;160906.04;;;7.50;100.00
46095;BME280;31832;50.746;-2.716;2023-12-29T05:36:17;160844.97;;;7.16;100.00
46095;BME280;31832;50.746;-2.716;2023-12-29T05:38:46;160867.57;;;7.52;100.00
46095;BME280;31832;50.746;-2.716;2023-12-29T05:41:08;160850.95;;;6.72;100.00
46095;BME280;31832;50.746;-2.716;2023-12-29T05:43:33;160953.25;;;7.52;100.00
46095;BME280;31832;50.746;-2.716;2023-12-29T05:45:58;160960.31;;;7.56;100.00
46095;BME280;31832;50.746;-2.716;2023-12-29T05:48:23;160902.22;;;7.48;100.00
46095;BME280;31832;50.746;-2.716;2023-12-29T05:50:48;160894.49;;;7.20;100.00
46095;BME280;31832;50.746;-2.716;2023-12-29T05:53:14;160952.50;;;7.52;100.00
46095;BME280;31832;50.746;-2.716;2023-12-29T05:55:39;160939.70;;;7.21;100.00
46095;BME280;31832;50.746;-2.716;2023-12-29T05:58:05;160940.61;;;7.69;100.00
46095;BME280;31832;50.746;-2.716;2023-12-29T06:00:30;160978.93;;;7.42;100.00
46095;BME280;31832;50.746;-2.716;2023-12-29T06:02:55;160960.48;;;7.56;100.00
46095;BME280;31832;50.746;-2.716;2023-12-29T06:05:20;160958.57;;;7.55;100.00
46095;BME280;31832;50.746;-2.716;2023-12-29T06:07:46;160914.94;;;7.55;100.00
46095;BME280;31832;50.746;-2.716;2023-12-29T06:10:11;160985.08;;;7.46;100.00
46095;BME280;31832;50.746;-2.716;2023-12-29T06:12:36;161069.45;;;7.92;100.00
46095;BME280;31832;50.746;-2.716;2023-12-29T06:15:02;160946.35;;;7.48;100.00
46095;BME280;31832;50.746;-2.716;2023-12-29T06:17:27;161068.62;;;7.68;100.00
46095;BME280;31832;50.746;-2.716;2023-12-29T06:19:52;161126.24;;;7.99;100.00
46095;BME280;31832;50.746;-2.716;2023-12-29T06:22:18;161183.78;;;8.31;100.00
46095;BME280;31832;50.746;-2.716;2023-12-29T06:24:43;161179.87;;;8.05;100.00
46095;BME280;31832;50.746;-2.716;2023-12-29T06:27:09;161007.61;;;7.58;100.00
46095;BME280;31832;50.746;-2.716;2023-12-29T06:29:34;160972.28;;;7.39;100.00
46095;BME280;31832;50.746;-2.716;2023-12-29T06:31:59;161074.77;;;8.19;100.00
46095;BME280;31832;50.746;-2.716;2023-12-29T06:34:24;161050.42;;;7.58;100.00
46095;BME280;31832;50.746;-2.716;2023-12-29T06:36:49;161111.69;;;7.91;100.00
46095;BME280;31832;50.746;-2.716;2023-12-29T06:39:15;161217.80;;;8.26;100.00
46095;BME280;31832;50.746;-2.716;2023-12-29T06:41:41;161245.83;;;8.41;100.00
46095;BME280;31832;50.746;-2.716;2023-12-29T06:44:06;161245.74;;;8.41;100.00
46095;BME280;31832;50.746;-2.716;2023-12-29T06:46:31;161294.16;;;8.20;100.00
46095;BME280;31832;50.746;-2.716;2023-12-29T06:48:57;161273.78;;;8.09;100.00
46095;BME280;31832;50.746;-2.716;2023-12-29T06:51:22;161354.64;;;8.54;100.00
46095;BME280;31832;50.746;-2.716;2023-12-29T06:53:47;161334.42;;;8.42;100.00
46095;BME280;31832;50.746;-2.716;2023-12-29T06:56:13;161310.96;;;8.30;100.00
46095;BME280;31832;50.746;-2.716;2023-12-29T06:58:37;161313.21;;;7.83;100.00
46095;BME280;31832;50.746;-2.716;2023-12-29T07:01:03;161420.20;;;8.66;100.00
46095;BME280;31832;50.746;-2.716;2023-12-29T07:03:28;161138.80;;;7.35;100.00
46095;BME280;31832;50.746;-2.716;2023-12-29T07:05:53;160979.34;;;6.47;100.00
46095;BME280;31832;50.746;-2.716;2023-12-29T07:08:19;160943.02;;;6.51;100.00
46095;BME280;31832;50.746;-2.716;2023-12-29T07:10:44;161148.11;;;7.64;100.00
46095;BME280;31832;50.746;-2.716;2023-12-29T07:13:10;161116.43;;;7.70;100.00
46095;BME280;31832;50.746;-2.716;2023-12-29T07:15:35;161253.73;;;8.22;100.00
46095;BME280;31832;50.746;-2.716;2023-12-29T07:18:00;161264.13;;;8.28;100.00
46095;BME280;31832;50.746;-2.716;2023-12-29T07:20:26;161439.51;;;9.00;100.00
46095;BME280;31832;50.746;-2.716;2023-12-29T07:22:51;161019.66;;;7.17;100.00
46095;BME280;31832;50.746;-2.716;2023-12-29T07:25:16;160970.78;;;7.14;100.00
46095;BME280;31832;50.746;-2.716;2023-12-29T07:27:42;161182.04;;;8.06;100.00
46095;BME280;31832;50.746;-2.716;2023-12-29T07:30:08;161238.01;;;8.13;100.00
46095;BME280;31832;50.746;-2.716;2023-12-29T07:32:32;161125.33;;;8.23;100.00
46095;BME280;31832;50.746;-2.716;2023-12-29T07:34:58;161153.18;;;7.67;100.00
46095;BME280;31832;50.746;-2.716;2023-12-29T07:37:23;161186.69;;;8.09;100.00
46095;BME280;31832;50.746;-2.716;2023-12-29T07:39:49;160932.47;;;7.17;100.00
46095;BME280;31832;50.746;-2.716;2023-12-29T07:42:14;161258.64;;;8.25;100.00
46095;BME280;31832;50.746;-2.716;2023-12-29T07:44:40;161329.43;;;8.88;100.00
46095;BME280;31832;50.746;-2.716;2023-12-29T07:47:06;161378.85;;;8.91;100.00
46095;BME280;31832;50.746;-2.716;2023-12-29T07:49:31;161031.38;;;7.23;100.00
46095;BME280;31832;50.746;-2.716;2023-12-29T07:51:56;161045.01;;;7.79;100.00
46095;BME280;31832;50.746;-2.716;2023-12-29T07:54:21;161214.39;;;8.24;100.00
46095;BME280;31832;50.746;-2.716;2023-12-29T07:56:47;160956.82;;;7.30;100.00
46095;BME280;31832;50.746;-2.716;2023-12-29T07:59:12;161051.08;;;7.58;100.00
46095;BME280;31832;50.746;-2.716;2023-12-29T08:01:37;161067.04;;;7.43;100.00
46095;BME280;31832;50.746;-2.716;2023-12-29T08:04:03;161110.03;;;7.43;100.00
46095;BME280;31832;50.746;-2.716;2023-12-29T08:06:28;161077.60;;;7.73;100.00
46095;BME280;31832;50.746;-2.716;2023-12-29T08:08:54;161052.99;;;7.83;100.00
46095;BME280;31832;50.746;-2.716;2023-12-29T08:11:19;161024.48;;;7.43;100.00
46095;BME280;31832;50.746;-2.716;2023-12-29T08:13:46;161185.86;;;8.08;100.00
46095;BME280;31832;50.746;-2.716;2023-12-29T08:16:11;161101.71;;;7.86;100.00
46095;BME280;31832;50.746;-2.716;2023-12-29T08:18:35;161034.21;;;7.73;100.00
46095;BME280;31832;50.746;-2.716;2023-12-29T08:21:00;160805.01;;;6.94;100.00
46095;BME280;31832;50.746;-2.716;2023-12-29T08:23:26;160788.73;;;7.09;100.00
46095;BME280;31832;50.746;-2.716;2023-12-29T08:25:51;160692.13;;;6.32;100.00
46095;BME280;31832;50.746;-2.716;2023-12-29T08:28:17;160749.10;;;6.63;100.00
46095;BME280;31832;50.746;-2.716;2023-12-29T08:30:42;160758.49;;;6.68;100.00
46095;BME280;31832;50.746;-2.716;2023-12-29T08:33:07;160698.60;;;6.11;100.00
46095;BME280;31832;50.746;-2.716;2023-12-29T08:35:32;160613.98;;;6.36;100.00
46095;BME280;31832;50.746;-2.716;2023-12-29T08:37:57;160716.63;;;6.69;100.00
46095;BME280;31832;50.746;-2.716;2023-12-29T08:40:22;160663.64;;;6.64;100.00
46095;BME280;31832;50.746;-2.716;2023-12-29T08:42:48;160698.60;;;6.35;100.00
46095;BME280;31832;50.746;-2.716;2023-12-29T08:45:13;160668.37;;;6.19;100.00
46095;BME280;31832;50.746;-2.716;2023-12-29T08:47:38;160740.96;;;6.59;100.00
46095;BME280;31832;50.746;-2.716;2023-12-29T08:50:05;160739.72;;;6.58;100.00
46095;BME280;31832;50.746;-2.716;2023-12-29T08:52:29;160740.13;;;6.82;100.00
46095;BME280;31832;50.746;-2.716;2023-12-29T08:54:54;160654.34;;;6.59;100.00
46095;BME280;31832;50.746;-2.716;2023-12-29T08:57:19;160750.02;;;6.64;100.00
46095;BME280;31832;50.746;-2.716;2023-12-29T08:59:45;160764.22;;;6.72;100.00
46095;BME280;31832;50.746;-2.716;2023-12-29T09:02:10;160798.03;;;6.90;100.00
46095;BME280;31832;50.746;-2.716;2023-12-29T09:04:36;160822.70;;;6.56;100.00
46095;BME280;31832;50.746;-2.716;2023-12-29T09:07:02;160945.68;;;6.76;100.00
46095;BME280;31832;50.746;-2.716;2023-12-29T09:09:26;161135.64;;;7.81;100.00
46095;BME280;31832;50.746;-2.716;2023-12-29T09:11:51;161121.58;;;7.73;100.00
46095;BME280;31832;50.746;-2.716;2023-12-29T09:14:16;161170.23;;;7.52;100.00
46095;BME280;31832;50.746;-2.716;2023-12-29T09:16:42;160866.91;;;6.33;100.00
46095;BME280;31832;50.746;-2.716;2023-12-29T09:19:07;160899.15;;;6.74;100.00
46095;BME280;31832;50.746;-2.716;2023-12-29T09:21:32;161060.39;;;7.87;100.00
46095;BME280;31832;50.746;-2.716;2023-12-29T09:23:58;160874.30;;;6.37;100.00
46095;BME280;31832;50.746;-2.716;2023-12-29T09:26:23;160940.78;;;6.73;100.00
46095;BME280;31832;50.746;-2.716;2023-12-29T09:28:48;160786.65;;;6.36;100.00
46095;BME280;31832;50.746;-2.716;2023-12-29T09:31:13;160832.59;;;6.85;100.00
46095;BME280;31832;50.746;-2.716;2023-12-29T09:33:38;160957.15;;;7.06;100.00
46095;BME280;31832;50.746;-2.716;2023-12-29T09:36:05;160987.91;;;7.23;100.00
46095;BME280;31832;50.746;-2.716;2023-12-29T09:38:29;161067.46;;;7.91;100.00
46095;BME280;31832;50.746;-2.716;2023-12-29T09:40:55;160852.70;;;7.20;100.00
46095;BME280;31832;50.746;-2.716;2023-12-29T09:43:20;160824.95;;;6.81;100.00
46095;BME280;31832;50.746;-2.716;2023-12-29T09:45:46;160812.24;;;6.98;100.00
46095;BME280;31832;50.746;-2.716;2023-12-29T09:48:12;160839.99;;;7.13;100.00
46095;BME280;31832;50.746;-2.716;2023-12-29T09:50:37;160802.18;;;6.92;100.00
46095;BME280;31832;50.746;-2.716;2023-12-29T09:53:02;160634.08;;;6.48;100.00
46095;BME280;31832;50.746;-2.716;2023-12-29T09:55:27;160667.71;;;6.66;100.00
46095;BME280;31832;50.746;-2.716;2023-12-29T09:57:52;160615.81;;;6.14;100.00
46095;BME280;31832;50.746;-2.716;2023-12-29T10:00:19;160492.61;;;5.69;100.00
46095;BME280;31832;50.746;-2.716;2023-12-29T10:02:43;160639.23;;;6.26;100.00
46095;BME280;31832;50.746;-2.716;2023-12-29T10:05:08;160564.25;;;6.09;100.00
46095;BME280;31832;50.746;-2.716;2023-12-29T10:07:36;160577.37;;;5.92;100.00
46095;BME280;31832;50.746;-2.716;2023-12-29T10:09:59;160537.44;;;5.94;100.00
46095;BME280;31832;50.746;-2.716;2023-12-29T10:12:24;160524.90;;;5.87;100.00
46095;BME280;31832;50.746;-2.716;2023-12-29T10:14:56;160521.58;;;5.85;100.00
46095;BME280;31832;50.746;-2.716;2023-12-29T10:17:22;160614.32;;;6.13;100.00
46095;BME280;31832;50.746;-2.716;2023-12-29T10:19:40;160561.59;;;6.31;100.00
46095;BME280;31832;50.746;-2.716;2023-12-29T10:22:11;160689.30;;;6.30;100.00
46095;BME280;31832;50.746;-2.716;2023-12-29T10:24:30;160730.08;;;6.53;100.00
46095;BME280;31832;50.746;-2.716;2023-12-29T10:26:55;160767.05;;;6.73;100.00
46095;BME280;31832;50.746;-2.716;2023-12-29T10:29:21;160806.17;;;6.95;100.00
46095;BME280;31832;50.746;-2.716;2023-12-29T10:31:46;160747.77;;;6.62;100.00
46095;BME280;31832;50.746;-2.716;2023-12-29T10:34:17;160743.29;;;6.60;100.00
46095;BME280;31832;50.746;-2.716;2023-12-29T10:36:46;160630.26;;;6.69;100.00
46095;BME280;31832;50.746;-2.716;2023-12-29T10:39:07;160729.67;;;6.52;100.00
46095;BME280;31832;50.746;-2.716;2023-12-29T10:41:26;160702.51;;;6.85;100.00
46095;BME280;31832;50.746;-2.716;2023-12-29T10:43:52;160781.91;;;7.05;100.00
46095;BME280;31832;50.746;-2.716;2023-12-29T10:46:17;160698.94;;;6.59;100.00
46095;BME280;31832;50.746;-2.716;2023-12-29T10:48:43;160774.85;;;6.77;100.00
46095;BME280;31832;50.746;-2.716;2023-12-29T10:51:09;160760.65;;;6.70;100.00
46095;BME280;31832;50.746;-2.716;2023-12-29T10:53:35;160840.24;;;6.90;100.00
46095;BME280;31832;50.746;-2.716;2023-12-29T10:55:59;160921.50;;;7.10;100.00
46095;BME280;31832;50.746;-2.716;2023-12-29T10:58:24;161014.59;;;8.10;100.00
46095;BME280;31832;50.746;-2.716;2023-12-29T11:00:49;161083.17;;;8.00;100.00
46095;BME280;31832;50.746;-2.716;2023-12-29T11:03:15;161034.54;;;7.73;100.00
46095;BME280;31832;50.746;-2.716;2023-12-29T11:05:40;161107.37;;;8.13;100.00
46095;BME280;31832;50.746;-2.716;2023-12-29T11:08:14;161009.68;;;7.59;100.00
46095;BME280;31832;50.746;-2.716;2023-12-29T11:10:30;160910.45;;;7.28;100.00
46095;BME280;31832;50.746;-2.716;2023-12-29T11:12:56;160847.38;;;6.70;100.00
46095;BME280;31832;50.746;-2.716;2023-12-29T11:15:21;160924.49;;;7.12;100.00
46095;BME280;31832;50.746;-2.716;2023-12-29T11:17:50;160990.65;;;7.96;100.00
46095;BME280;31832;50.746;-2.716;2023-12-29T11:20:12;161029.30;;;7.70;100.00
46095;BME280;31832;50.746;-2.716;2023-12-29T11:22:37;160947.43;;;7.49;100.00
46095;BME280;31832;50.746;-2.716;2023-12-29T11:25:04;160974.69;;;7.88;100.00
46095;BME280;31832;50.746;-2.716;2023-12-29T11:27:29;160992.23;;;7.73;100.00
46095;BME280;31832;50.746;-2.716;2023-12-29T11:29:53;160973.19;;;7.63;100.00
46095;BME280;31832;50.746;-2.716;2023-12-29T11:32:20;160977.77;;;7.89;100.00
46095;BME280;31832;50.746;-2.716;2023-12-29T11:34:46;160907.04;;;7.74;100.00
46095;BME280;31832;50.746;-2.716;2023-12-29T11:37:18;160937.46;;;7.67;100.00
46095;BME280;31832;50.746;-2.716;2023-12-29T11:39:40;160965.96;;;7.83;100.00
46095;BME280;31832;50.746;-2.716;2023-12-29T11:42:04;160954.74;;;7.77;100.00
46095;BME280;31832;50.746;-2.716;2023-12-29T11:44:26;160912.61;;;7.53;100.00
46095;BME280;31832;50.746;-2.716;2023-12-29T11:46:49;160966.30;;;7.83;100.00
46095;BME280;31832;50.746;-2.716;2023-12-29T11:49:15;160981.17;;;7.67;100.00
46095;BME280;31832;50.746;-2.716;2023-12-29T11:51:41;160948.68;;;7.73;100.00
46095;BME280;31832;50.746;-2.716;2023-12-29T11:54:06;161006.86;;;8.05;100.00
46095;BME280;31832;50.746;-2.716;2023-12-29T11:56:34;160989.49;;;7.96;100.00
46095;BME280;31832;50.746;-2.716;2023-12-29T11:58:55;160997.71;;;8.00;100.00
46095;BME280;31832;50.746;-2.716;2023-12-29T12:01:33;161078.43;;;8.21;100.00
46095;BME280;31832;50.746;-2.716;2023-12-29T12:03:46;161118.01;;;8.19;100.00
46095;BME280;31832;50.746;-2.716;2023-12-29T12:06:11;160944.60;;;7.71;100.00
46095;BME280;31832;50.746;-2.716;2023-12-29T12:08:36;161047.76;;;8.28;100.00
46095;BME280;31832;50.746;-2.716;2023-12-29T12:13:42;161094.81;;;8.30;100.00
46095;BME280;31832;50.746;-2.716;2023-12-29T12:16:00;160982.09;;;7.92;100.00
46095;BME280;31832;50.746;-2.716;2023-12-29T12:18:26;160906.87;;;7.50;100.00
46095;BME280;31832;50.746;-2.716;2023-12-29T12:20:42;160873.22;;;7.32;100.00
46095;BME280;31832;50.746;-2.716;2023-12-29T12:23:11;161000.21;;;7.78;100.00
46095;BME280;31832;50.746;-2.716;2023-12-29T12:25:32;161109.61;;;8.14;100.00
46095;BME280;31832;50.746;-2.716;2023-12-29T12:27:58;160961.06;;;7.80;100.00
46095;BME280;31832;50.746;-2.716;2023-12-29T12:30:23;161036.70;;;7.74;100.00
46095;BME280;31832;50.746;-2.716;2023-12-29T12:32:57;160921.92;;;7.59;100.00
46095;BME280;31832;50.746;-2.716;2023-12-29T12:35:15;160921.09;;;7.58;100.00